sensor_id;sensor_type;location;lat;lon;timestamp;pressure;altitude;pressure_sealevel;temperature;humidity
5380;BME280;2713;42.680;23.310;2022-12-18T00:00:41;95810.22;;;8.77;81.65
5380;BME280;2713;42.680;23.310;2022-12-18T00:03:08;95838.31;;;8.82;81.56
5380;BME280;2713;42.680;23.310;2022-12-18T00:05:35;95833.66;;;8.68;81.92
5380;BME280;2713;42.680;23.310;2022-12-18T00:08:02;95835.94;;;8.71;81.63
5380;BME280;2713;42.680;23.310;2022-12-18T00:10:30;95833.06;;;8.56;82.92
5380;BME280;2713;42.680;23.310;2022-12-18T00:12:57;95840.59;;;8.67;81.77
5380;BME280;2713;42.680;23.310;2022-12-18T00:15:24;95848.31;;;8.59;81.96
5380;BME280;2713;42.680;23.310;2022-12-18T00:17:51;95845.22;;;8.73;81.29
5380;BME280;2713;42.680;23.310;2022-12-18T00:20:17;95849.50;;;8.64;81.93
5380;BME280;2713;42.680;23.310;2022-12-18T00:22:50;95856.63;;;8.62;82.18
5380;BME280;2713;42.680;23.310;2022-12-18T00:25:17;95858.44;;;8.70;81.51
5380;BME280;2713;42.680;23.310;2022-12-18T00:27:45;95864.53;;;8.79;80.65
5380;BME280;2713;42.680;23.310;2022-12-18T00:30:13;95868.28;;;8.66;80.78
5380;BME280;2713;42.680;23.310;2022-12-18T00:32:40;95865.69;;;8.66;80.58
5380;BME280;2713;42.680;23.310;2022-12-18T00:35:07;95872.72;;;8.56;81.35
5380;BME280;2713;42.680;23.310;2022-12-18T00:37:34;95878.50;;;8.50;81.55
5380;BME280;2713;42.680;23.310;2022-12-18T00:40:02;95870.66;;;8.42;81.77
5380;BME280;2713;42.680;23.310;2022-12-18T00:42:29;95868.06;;;8.42;81.51
5380;BME280;2713;42.680;23.310;2022-12-18T00:45:14;95874.63;;;8.37;81.42
5380;BME280;2713;42.680;23.310;2022-12-18T00:47:41;95879.44;;;8.22;80.53
5380;BME280;2713;42.680;23.310;2022-12-18T00:50:09;95881.63;;;8.27;80.88
5380;BME280;2713;42.680;23.310;2022-12-18T00:52:35;95882.28;;;8.38;80.40
5380;BME280;2713;42.680;23.310;2022-12-18T00:55:03;95893.19;;;8.32;80.69
5380;BME280;2713;42.680;23.310;2022-12-18T00:57:30;95891.66;;;8.39;80.09
5380;BME280;2713;42.680;23.310;2022-12-18T00:59:56;95886.78;;;8.27;80.50
5380;BME280;2713;42.680;23.310;2022-12-18T01:02:25;95899.69;;;8.09;80.85
5380;BME280;2713;42.680;23.310;2022-12-18T01:04:52;95897.25;;;8.07;81.44
5380;BME280;2713;42.680;23.310;2022-12-18T01:07:19;95896.09;;;8.20;80.78
5380;BME280;2713;42.680;23.310;2022-12-18T01:09:46;95894.72;;;8.25;79.86
5380;BME280;2713;42.680;23.310;2022-12-18T01:12:12;95899.97;;;8.06;80.73
5380;BME280;2713;42.680;23.310;2022-12-18T01:14:39;95913.66;;;7.89;80.87
5380;BME280;2713;42.680;23.310;2022-12-18T01:17:06;95910.59;;;7.76;81.00
5380;BME280;2713;42.680;23.310;2022-12-18T01:19:34;95912.66;;;7.62;81.74
5380;BME280;2713;42.680;23.310;2022-12-18T01:22:03;95921.97;;;7.46;81.54
5380;BME280;2713;42.680;23.310;2022-12-18T01:24:29;95914.75;;;7.40;82.15
5380;BME280;2713;42.680;23.310;2022-12-18T01:26:56;95918.03;;;7.32;82.46
5380;BME280;2713;42.680;23.310;2022-12-18T01:29:23;95924.00;;;7.52;81.86
5380;BME280;2713;42.680;23.310;2022-12-18T01:31:50;95920.88;;;7.48;82.38
5380;BME280;2713;42.680;23.310;2022-12-18T01:34:16;95925.63;;;7.53;82.54
5380;BME280;2713;42.680;23.310;2022-12-18T01:36:45;95928.47;;;7.59;82.25
5380;BME280;2713;42.680;23.310;2022-12-18T01:39:13;95938.78;;;7.69;81.19
5380;BME280;2713;42.680;23.310;2022-12-18T01:41:41;95934.69;;;7.76;80.78
5380;BME280;2713;42.680;23.310;2022-12-18T01:44:53;95937.69;;;7.72;80.88
5380;BME280;2713;42.680;23.310;2022-12-18T01:47:23;95936.19;;;7.79;80.38
5380;BME280;2713;42.680;23.310;2022-12-18T01:49:51;95938.47;;;7.82;81.08
5380;BME280;2713;42.680;23.310;2022-12-18T01:52:21;95939.06;;;7.76;80.16
5380;BME280;2713;42.680;23.310;2022-12-18T01:54:51;95941.03;;;7.91;79.87
5380;BME280;2713;42.680;23.310;2022-12-18T01:57:19;95929.34;;;7.87;79.72
5380;BME280;2713;42.680;23.310;2022-12-18T01:59:50;95928.44;;;7.69;79.91
5380;BME280;2713;42.680;23.310;2022-12-18T02:02:18;95941.50;;;7.68;80.55
5380;BME280;2713;42.680;23.310;2022-12-18T02:04:46;95942.91;;;7.52;80.68
5380;BME280;2713;42.680;23.310;2022-12-18T02:07:20;95941.03;;;7.35;81.45
5380;BME280;2713;42.680;23.310;2022-12-18T02:09:57;95943.03;;;7.51;81.13
5380;BME280;2713;42.680;23.310;2022-12-18T02:12:31;95946.03;;;7.56;80.75
5380;BME280;2713;42.680;23.310;2022-12-18T02:15:06;95953.22;;;7.72;79.98
5380;BME280;2713;42.680;23.310;2022-12-18T02:17:41;95958.09;;;7.94;79.03
5380;BME280;2713;42.680;23.310;2022-12-18T02:20:13;95948.84;;;7.82;78.59
5380;BME280;2713;42.680;23.310;2022-12-18T02:22:51;95941.56;;;7.48;79.71
5380;BME280;2713;42.680;23.310;2022-12-18T02:25:33;95955.19;;;7.41;80.47
5380;BME280;2713;42.680;23.310;2022-12-18T02:28:09;95962.81;;;7.33;81.20
5380;BME280;2713;42.680;23.310;2022-12-18T02:30:39;95960.22;;;7.52;80.64
5380;BME280;2713;42.680;23.310;2022-12-18T02:33:08;95963.34;;;7.46;80.81
5380;BME280;2713;42.680;23.310;2022-12-18T02:35:40;95965.28;;;7.25;81.17
5380;BME280;2713;42.680;23.310;2022-12-18T02:38:08;95957.34;;;7.26;81.35
5380;BME280;2713;42.680;23.310;2022-12-18T02:40:37;95968.94;;;7.41;80.26
5380;BME280;2713;42.680;23.310;2022-12-18T02:43:09;95969.88;;;7.31;80.57
5380;BME280;2713;42.680;23.310;2022-12-18T02:45:46;95957.91;;;7.20;81.14
5380;BME280;2713;42.680;23.310;2022-12-18T02:48:15;95972.34;;;7.13;80.69
5380;BME280;2713;42.680;23.310;2022-12-18T02:50:45;95965.41;;;7.04;81.58
5380;BME280;2713;42.680;23.310;2022-12-18T02:53:23;95965.66;;;6.91;82.25
5380;BME280;2713;42.680;23.310;2022-12-18T02:55:59;95953.53;;;6.82;82.96
5380;BME280;2713;42.680;23.310;2022-12-18T02:58:33;95966.34;;;7.03;82.15
5380;BME280;2713;42.680;23.310;2022-12-18T03:01:15;95956.81;;;7.13;81.20
5380;BME280;2713;42.680;23.310;2022-12-18T03:03:48;95971.78;;;7.00;82.21
5380;BME280;2713;42.680;23.310;2022-12-18T03:06:22;95972.44;;;6.92;81.70
5380;BME280;2713;42.680;23.310;2022-12-18T03:08:54;95985.63;;;6.70;82.77
5380;BME280;2713;42.680;23.310;2022-12-18T03:11:26;95980.19;;;6.73;82.84
5380;BME280;2713;42.680;23.310;2022-12-18T03:14:13;95979.81;;;6.97;81.93
5380;BME280;2713;42.680;23.310;2022-12-18T03:16:47;95991.09;;;6.86;81.83
5380;BME280;2713;42.680;23.310;2022-12-18T03:19:16;95978.16;;;6.77;82.18
5380;BME280;2713;42.680;23.310;2022-12-18T03:21:51;95988.34;;;6.78;82.32
5380;BME280;2713;42.680;23.310;2022-12-18T03:24:21;95995.38;;;6.57;82.64
5380;BME280;2713;42.680;23.310;2022-12-18T03:26:53;95995.00;;;6.71;82.56
5380;BME280;2713;42.680;23.310;2022-12-18T03:29:26;95991.50;;;6.91;81.33
5380;BME280;2713;42.680;23.310;2022-12-18T03:32:01;95998.56;;;6.99;80.88
5380;BME280;2713;42.680;23.310;2022-12-18T03:34:34;96004.16;;;7.04;80.41
5380;BME280;2713;42.680;23.310;2022-12-18T03:37:06;96009.16;;;6.77;81.59
5380;BME280;2713;42.680;23.310;2022-12-18T03:39:33;96009.53;;;6.72;81.71
5380;BME280;2713;42.680;23.310;2022-12-18T03:42:05;96014.72;;;6.82;81.33
5380;BME280;2713;42.680;23.310;2022-12-18T03:44:44;96022.09;;;6.86;81.33
5380;BME280;2713;42.680;23.310;2022-12-18T03:47:18;96030.13;;;6.93;80.68
5380;BME280;2713;42.680;23.310;2022-12-18T03:49:55;96046.34;;;7.14;80.03
5380;BME280;2713;42.680;23.310;2022-12-18T03:52:27;96041.63;;;7.38;78.93
5380;BME280;2713;42.680;23.310;2022-12-18T03:54:56;96033.03;;;7.38;78.14
5380;BME280;2713;42.680;23.310;2022-12-18T03:57:27;96036.84;;;7.05;79.27
5380;BME280;2713;42.680;23.310;2022-12-18T04:00:00;96039.81;;;7.10;79.19
5380;BME280;2713;42.680;23.310;2022-12-18T04:02:42;96048.13;;;7.13;79.41
5380;BME280;2713;42.680;23.310;2022-12-18T04:05:14;96049.34;;;7.09;78.80
5380;BME280;2713;42.680;23.310;2022-12-18T04:07:43;96063.78;;;7.22;78.12
5380;BME280;2713;42.680;23.310;2022-12-18T04:10:13;96060.00;;;7.26;77.56
5380;BME280;2713;42.680;23.310;2022-12-18T04:12:42;96061.75;;;7.25;77.74
5380;BME280;2713;42.680;23.310;2022-12-18T04:15:12;96065.97;;;7.26;77.14
5380;BME280;2713;42.680;23.310;2022-12-18T04:17:47;96064.56;;;7.03;78.17
5380;BME280;2713;42.680;23.310;2022-12-18T04:20:17;96066.75;;;7.07;77.70
5380;BME280;2713;42.680;23.310;2022-12-18T04:22:45;96075.06;;;7.11;78.08
5380;BME280;2713;42.680;23.310;2022-12-18T04:25:12;96081.44;;;7.07;78.01
5380;BME280;2713;42.680;23.310;2022-12-18T04:27:51;96075.53;;;6.86;78.22
5380;BME280;2713;42.680;23.310;2022-12-18T04:30:19;96089.72;;;6.91;78.38
5380;BME280;2713;42.680;23.310;2022-12-18T04:32:46;96082.53;;;6.95;77.86
5380;BME280;2713;42.680;23.310;2022-12-18T04:35:13;96093.81;;;6.94;77.95
5380;BME280;2713;42.680;23.310;2022-12-18T04:37:42;96098.16;;;7.03;77.85
5380;BME280;2713;42.680;23.310;2022-12-18T04:40:10;96100.53;;;7.16;77.05
5380;BME280;2713;42.680;23.310;2022-12-18T04:42:41;96110.06;;;7.34;75.57
5380;BME280;2713;42.680;23.310;2022-12-18T04:45:08;96104.34;;;7.21;75.08
5380;BME280;2713;42.680;23.310;2022-12-18T04:47:37;96109.16;;;6.95;75.67
5380;BME280;2713;42.680;23.310;2022-12-18T04:50:04;96117.19;;;6.62;76.75
5380;BME280;2713;42.680;23.310;2022-12-18T04:52:31;96118.19;;;6.40;76.35
5380;BME280;2713;42.680;23.310;2022-12-18T04:54:58;96128.06;;;6.35;77.21
5380;BME280;2713;42.680;23.310;2022-12-18T04:57:25;96126.28;;;6.56;76.49
5380;BME280;2713;42.680;23.310;2022-12-18T04:59:52;96127.66;;;6.60;75.55
5380;BME280;2713;42.680;23.310;2022-12-18T05:02:19;96133.31;;;6.54;75.43
5380;BME280;2713;42.680;23.310;2022-12-18T05:04:47;96134.09;;;6.45;75.60
5380;BME280;2713;42.680;23.310;2022-12-18T05:07:14;96138.41;;;6.35;76.03
5380;BME280;2713;42.680;23.310;2022-12-18T05:09:41;96147.84;;;6.25;75.98
5380;BME280;2713;42.680;23.310;2022-12-18T05:12:08;96140.91;;;6.05;76.89
5380;BME280;2713;42.680;23.310;2022-12-18T05:14:34;96143.88;;;6.21;76.95
5380;BME280;2713;42.680;23.310;2022-12-18T05:17:01;96142.09;;;6.42;76.70
5380;BME280;2713;42.680;23.310;2022-12-18T05:19:28;96158.16;;;6.25;76.79
5380;BME280;2713;42.680;23.310;2022-12-18T05:21:56;96155.69;;;6.03;76.89
5380;BME280;2713;42.680;23.310;2022-12-18T05:24:23;96159.81;;;6.05;77.24
5380;BME280;2713;42.680;23.310;2022-12-18T05:26:50;96158.72;;;6.08;77.08
5380;BME280;2713;42.680;23.310;2022-12-18T05:29:16;96170.94;;;6.06;76.86
5380;BME280;2713;42.680;23.310;2022-12-18T05:31:43;96175.78;;;6.20;76.93
5380;BME280;2713;42.680;23.310;2022-12-18T05:34:10;96172.19;;;5.91;78.10
5380;BME280;2713;42.680;23.310;2022-12-18T05:36:37;96189.13;;;6.04;77.19
5380;BME280;2713;42.680;23.310;2022-12-18T05:39:05;96185.94;;;6.12;76.99
5380;BME280;2713;42.680;23.310;2022-12-18T05:41:32;96188.91;;;6.28;76.46
5380;BME280;2713;42.680;23.310;2022-12-18T05:43:59;96194.06;;;6.49;75.55
5380;BME280;2713;42.680;23.310;2022-12-18T05:46:26;96193.50;;;6.45;75.12
5380;BME280;2713;42.680;23.310;2022-12-18T05:48:53;96203.56;;;6.48;75.08
5380;BME280;2713;42.680;23.310;2022-12-18T05:51:21;96199.59;;;6.24;74.61
5380;BME280;2713;42.680;23.310;2022-12-18T05:53:48;96194.47;;;5.92;75.89
5380;BME280;2713;42.680;23.310;2022-12-18T05:56:18;96199.25;;;5.96;75.09
5380;BME280;2713;42.680;23.310;2022-12-18T05:58:45;96199.69;;;6.01;75.63
5380;BME280;2713;42.680;23.310;2022-12-18T06:01:14;96201.56;;;5.99;75.25
5380;BME280;2713;42.680;23.310;2022-12-18T06:03:42;96209.13;;;5.91;74.94
5380;BME280;2713;42.680;23.310;2022-12-18T06:06:16;96209.69;;;5.95;75.73
5380;BME280;2713;42.680;23.310;2022-12-18T06:08:43;96217.69;;;5.81;75.58
5380;BME280;2713;42.680;23.310;2022-12-18T06:11:10;96217.78;;;5.90;75.58
5380;BME280;2713;42.680;23.310;2022-12-18T06:13:38;96212.03;;;5.98;75.06
5380;BME280;2713;42.680;23.310;2022-12-18T06:16:06;96223.78;;;5.91;76.45
5380;BME280;2713;42.680;23.310;2022-12-18T06:18:33;96216.25;;;5.99;75.17
5380;BME280;2713;42.680;23.310;2022-12-18T06:21:00;96223.78;;;5.91;75.67
5380;BME280;2713;42.680;23.310;2022-12-18T06:23:27;96227.59;;;6.07;75.80
5380;BME280;2713;42.680;23.310;2022-12-18T06:25:54;96229.38;;;5.96;75.14
5380;BME280;2713;42.680;23.310;2022-12-18T06:28:21;96230.44;;;5.93;75.42
5380;BME280;2713;42.680;23.310;2022-12-18T06:30:49;96217.78;;;6.01;75.44
5380;BME280;2713;42.680;23.310;2022-12-18T06:33:16;96225.25;;;6.04;75.60
5380;BME280;2713;42.680;23.310;2022-12-18T06:35:43;96238.84;;;6.06;75.62
5380;BME280;2713;42.680;23.310;2022-12-18T06:38:10;96240.16;;;6.01;75.67
5380;BME280;2713;42.680;23.310;2022-12-18T06:40:37;96242.41;;;6.05;75.75
5380;BME280;2713;42.680;23.310;2022-12-18T06:43:05;96248.94;;;6.09;75.98
5380;BME280;2713;42.680;23.310;2022-12-18T06:45:32;96258.53;;;6.19;75.31
5380;BME280;2713;42.680;23.310;2022-12-18T06:48:01;96255.16;;;6.07;74.47
5380;BME280;2713;42.680;23.310;2022-12-18T06:50:28;96268.13;;;6.17;74.53
5380;BME280;2713;42.680;23.310;2022-12-18T06:52:55;96268.28;;;6.15;73.83
5380;BME280;2713;42.680;23.310;2022-12-18T06:55:21;96272.25;;;6.19;73.64
5380;BME280;2713;42.680;23.310;2022-12-18T06:57:48;96265.28;;;5.99;74.70
5380;BME280;2713;42.680;23.310;2022-12-18T07:00:15;96271.13;;;6.01;75.02
5380;BME280;2713;42.680;23.310;2022-12-18T07:02:42;96273.63;;;6.02;73.34
5380;BME280;2713;42.680;23.310;2022-12-18T07:05:10;96272.03;;;6.11;73.33
5380;BME280;2713;42.680;23.310;2022-12-18T07:07:37;96277.88;;;6.24;72.64
5380;BME280;2713;42.680;23.310;2022-12-18T07:10:05;96280.91;;;6.29;72.38
5380;BME280;2713;42.680;23.310;2022-12-18T07:12:32;96288.41;;;6.32;72.89
5380;BME280;2713;42.680;23.310;2022-12-18T07:14:59;96288.75;;;6.28;72.46
5380;BME280;2713;42.680;23.310;2022-12-18T07:17:26;96293.63;;;6.10;73.38
5380;BME280;2713;42.680;23.310;2022-12-18T07:19:53;96289.44;;;6.09;73.70
5380;BME280;2713;42.680;23.310;2022-12-18T07:22:21;96286.47;;;6.13;73.65
5380;BME280;2713;42.680;23.310;2022-12-18T07:24:48;96286.56;;;6.23;72.73
5380;BME280;2713;42.680;23.310;2022-12-18T07:27:15;96284.88;;;6.33;72.69
5380;BME280;2713;42.680;23.310;2022-12-18T07:29:42;96291.75;;;6.12;72.69
5380;BME280;2713;42.680;23.310;2022-12-18T07:32:09;96297.53;;;5.93;73.92
5380;BME280;2713;42.680;23.310;2022-12-18T07:34:36;96297.53;;;5.82;74.17
5380;BME280;2713;42.680;23.310;2022-12-18T07:37:02;96308.44;;;5.86;73.92
5380;BME280;2713;42.680;23.310;2022-12-18T07:39:31;96298.72;;;5.89;74.18
5380;BME280;2713;42.680;23.310;2022-12-18T07:41:58;96300.69;;;5.97;74.00
5380;BME280;2713;42.680;23.310;2022-12-18T07:44:43;96307.28;;;6.01;73.77
5380;BME280;2713;42.680;23.310;2022-12-18T07:47:09;96316.97;;;6.20;73.25
5380;BME280;2713;42.680;23.310;2022-12-18T07:49:36;96308.09;;;5.90;73.31
5380;BME280;2713;42.680;23.310;2022-12-18T07:52:03;96322.19;;;5.86;74.03
5380;BME280;2713;42.680;23.310;2022-12-18T07:54:31;96316.44;;;5.94;73.99
5380;BME280;2713;42.680;23.310;2022-12-18T07:56:59;96325.22;;;5.80;74.38
5380;BME280;2713;42.680;23.310;2022-12-18T07:59:26;96318.28;;;5.81;74.43
5380;BME280;2713;42.680;23.310;2022-12-18T08:01:53;96331.78;;;5.84;74.29
5380;BME280;2713;42.680;23.310;2022-12-18T08:04:20;96326.03;;;5.81;75.00
5380;BME280;2713;42.680;23.310;2022-12-18T08:06:47;96333.09;;;5.90;74.52
5380;BME280;2713;42.680;23.310;2022-12-18T08:09:13;96343.66;;;5.87;74.98
5380;BME280;2713;42.680;23.310;2022-12-18T08:11:42;96343.41;;;5.68;75.28
5380;BME280;2713;42.680;23.310;2022-12-18T08:14:09;96344.81;;;5.72;75.27
5380;BME280;2713;42.680;23.310;2022-12-18T08:16:36;96343.88;;;5.61;75.56
5380;BME280;2713;42.680;23.310;2022-12-18T08:19:03;96334.16;;;7.14;94.39
5380;BME280;2713;42.680;23.310;2022-12-18T08:21:31;96333.69;;;7.91;90.83
5380;BME280;2713;42.680;23.310;2022-12-18T08:23:59;96363.84;;;7.41;71.65
5380;BME280;2713;42.680;23.310;2022-12-18T08:26:28;96355.59;;;6.85;70.99
5380;BME280;2713;42.680;23.310;2022-12-18T08:28:58;96359.84;;;6.43;72.54
5380;BME280;2713;42.680;23.310;2022-12-18T08:31:27;96373.44;;;6.02;73.04
5380;BME280;2713;42.680;23.310;2022-12-18T08:33:55;96375.16;;;5.79;74.06
5380;BME280;2713;42.680;23.310;2022-12-18T08:36:23;96374.56;;;5.76;75.00
5380;BME280;2713;42.680;23.310;2022-12-18T08:38:50;96374.25;;;5.91;73.62
5380;BME280;2713;42.680;23.310;2022-12-18T08:41:17;96382.94;;;5.90;74.01
5380;BME280;2713;42.680;23.310;2022-12-18T08:43:44;96371.53;;;5.82;73.68
5380;BME280;2713;42.680;23.310;2022-12-18T08:46:34;96375.16;;;5.79;73.45
5380;BME280;2713;42.680;23.310;2022-12-18T08:49:02;96364.16;;;5.66;74.54
5380;BME280;2713;42.680;23.310;2022-12-18T08:51:30;96389.09;;;5.66;73.85
5380;BME280;2713;42.680;23.310;2022-12-18T08:53:57;96374.94;;;5.71;73.13
5380;BME280;2713;42.680;23.310;2022-12-18T08:56:24;96374.47;;;5.77;73.95
5380;BME280;2713;42.680;23.310;2022-12-18T08:58:51;96378.09;;;5.63;72.69
5380;BME280;2713;42.680;23.310;2022-12-18T09:01:19;96383.38;;;5.73;72.14
5380;BME280;2713;42.680;23.310;2022-12-18T09:03:47;96385.63;;;5.78;72.35
5380;BME280;2713;42.680;23.310;2022-12-18T09:06:15;96370.13;;;5.78;72.36
5380;BME280;2713;42.680;23.310;2022-12-18T09:08:42;96370.13;;;5.67;71.92
5380;BME280;2713;42.680;23.310;2022-12-18T09:11:14;96377.50;;;5.82;73.04
5380;BME280;2713;42.680;23.310;2022-12-18T09:13:40;96379.03;;;5.74;72.74
5380;BME280;2713;42.680;23.310;2022-12-18T09:16:07;96373.78;;;5.75;72.61
5380;BME280;2713;42.680;23.310;2022-12-18T09:18:35;96369.38;;;6.31;74.15
5380;BME280;2713;42.680;23.310;2022-12-18T09:21:09;96378.34;;;6.16;71.16
5380;BME280;2713;42.680;23.310;2022-12-18T09:23:37;96379.38;;;6.13;71.26
5380;BME280;2713;42.680;23.310;2022-12-18T09:26:04;96373.28;;;6.15;71.82
5380;BME280;2713;42.680;23.310;2022-12-18T09:28:31;96380.22;;;6.03;72.60
5380;BME280;2713;42.680;23.310;2022-12-18T09:30:57;96375.34;;;6.43;70.52
5380;BME280;2713;42.680;23.310;2022-12-18T09:33:24;96377.78;;;6.01;69.78
5380;BME280;2713;42.680;23.310;2022-12-18T09:35:51;96384.69;;;6.01;69.73
5380;BME280;2713;42.680;23.310;2022-12-18T09:38:20;96375.97;;;5.80;70.97
5380;BME280;2713;42.680;23.310;2022-12-18T09:40:50;96379.97;;;5.73;70.92
5380;BME280;2713;42.680;23.310;2022-12-18T09:43:20;96389.16;;;5.99;70.34
5380;BME280;2713;42.680;23.310;2022-12-18T09:45:53;96381.53;;;6.08;69.15
5380;BME280;2713;42.680;23.310;2022-12-18T09:48:26;96381.53;;;5.97;70.02
5380;BME280;2713;42.680;23.310;2022-12-18T09:51:02;96382.09;;;6.01;69.54
5380;BME280;2713;42.680;23.310;2022-12-18T09:53:33;96386.78;;;6.07;70.24
5380;BME280;2713;42.680;23.310;2022-12-18T09:56:03;96378.34;;;6.16;69.24
5380;BME280;2713;42.680;23.310;2022-12-18T09:58:35;96382.31;;;6.20;68.77
5380;BME280;2713;42.680;23.310;2022-12-18T10:01:09;96372.91;;;6.30;68.91
5380;BME280;2713;42.680;23.310;2022-12-18T10:03:36;96373.69;;;6.42;68.14
5380;BME280;2713;42.680;23.310;2022-12-18T10:06:07;96377.84;;;6.22;69.01
5380;BME280;2713;42.680;23.310;2022-12-18T10:08:42;96380.63;;;6.30;67.47
5380;BME280;2713;42.680;23.310;2022-12-18T10:15:13;96371.44;;;5.94;68.99
5380;BME280;2713;42.680;23.310;2022-12-18T10:22:52;96384.31;;;6.17;67.45
5380;BME280;2713;42.680;23.310;2022-12-18T10:25:33;96384.69;;;6.01;68.63
5380;BME280;2713;42.680;23.310;2022-12-18T10:28:10;96385.38;;;6.14;68.36
5380;BME280;2713;42.680;23.310;2022-12-18T10:30:38;96380.44;;;6.33;68.90
5380;BME280;2713;42.680;23.310;2022-12-18T10:33:08;96383.34;;;6.29;67.57
5380;BME280;2713;42.680;23.310;2022-12-18T10:35:41;96376.94;;;6.12;67.61
5380;BME280;2713;42.680;23.310;2022-12-18T10:38:21;96384.19;;;6.29;68.41
5380;BME280;2713;42.680;23.310;2022-12-18T10:40:52;96374.44;;;6.33;69.45
5380;BME280;2713;42.680;23.310;2022-12-18T10:43:22;96379.19;;;6.48;68.71
5380;BME280;2713;42.680;23.310;2022-12-18T10:46:02;96376.63;;;6.37;69.23
5380;BME280;2713;42.680;23.310;2022-12-18T10:48:31;96376.41;;;6.40;67.59
5380;BME280;2713;42.680;23.310;2022-12-18T10:50:58;96376.13;;;6.54;66.86
5380;BME280;2713;42.680;23.310;2022-12-18T10:53:28;96376.84;;;6.56;66.28
5380;BME280;2713;42.680;23.310;2022-12-18T10:55:58;96375.19;;;6.55;66.05
5380;BME280;2713;42.680;23.310;2022-12-18T10:58:27;96370.38;;;6.51;66.17
5380;BME280;2713;42.680;23.310;2022-12-18T11:01:06;96371.44;;;6.48;66.76
5380;BME280;2713;42.680;23.310;2022-12-18T11:03:34;96369.69;;;6.49;66.58
5380;BME280;2713;42.680;23.310;2022-12-18T11:06:07;96367.97;;;6.38;66.15
5380;BME280;2713;42.680;23.310;2022-12-18T11:08:34;96371.53;;;6.15;64.19
5380;BME280;2713;42.680;23.310;2022-12-18T11:11:06;96383.50;;;6.16;63.70
5380;BME280;2713;42.680;23.310;2022-12-18T11:13:34;96386.03;;;6.27;64.00
5380;BME280;2713;42.680;23.310;2022-12-18T11:16:00;96382.56;;;6.60;68.94
5380;BME280;2713;42.680;23.310;2022-12-18T11:18:29;96373.13;;;6.38;65.39
5380;BME280;2713;42.680;23.310;2022-12-18T11:20:58;96384.88;;;6.31;65.68
5380;BME280;2713;42.680;23.310;2022-12-18T11:23:27;96385.59;;;6.22;66.67
5380;BME280;2713;42.680;23.310;2022-12-18T11:25:56;96381.38;;;6.21;66.39
5380;BME280;2713;42.680;23.310;2022-12-18T11:28:35;96377.03;;;6.33;65.96
5380;BME280;2713;42.680;23.310;2022-12-18T11:31:21;96388.38;;;6.30;66.06
5380;BME280;2713;42.680;23.310;2022-12-18T11:33:56;96382.88;;;6.24;66.15
5380;BME280;2713;42.680;23.310;2022-12-18T11:36:26;96372.69;;;6.22;66.56
5380;BME280;2713;42.680;23.310;2022-12-18T11:38:55;96380.44;;;6.22;66.64
5380;BME280;2713;42.680;23.310;2022-12-18T11:41:28;96378.03;;;6.41;65.19
5380;BME280;2713;42.680;23.310;2022-12-18T11:44:15;96392.56;;;6.53;65.72
5380;BME280;2713;42.680;23.310;2022-12-18T11:46:49;96389.41;;;6.50;64.54
5380;BME280;2713;42.680;23.310;2022-12-18T11:49:22;96365.53;;;7.51;84.89
5380;BME280;2713;42.680;23.310;2022-12-18T11:51:56;96389.75;;;7.09;64.35
5380;BME280;2713;42.680;23.310;2022-12-18T11:54:26;96394.53;;;6.93;63.28
5380;BME280;2713;42.680;23.310;2022-12-18T11:56:56;96383.94;;;6.96;63.93
5380;BME280;2713;42.680;23.310;2022-12-18T11:59:32;96386.63;;;6.74;64.14
5380;BME280;2713;42.680;23.310;2022-12-18T12:02:17;96381.72;;;6.71;64.91
5380;BME280;2713;42.680;23.310;2022-12-18T12:04:53;96379.50;;;6.66;64.82
5380;BME280;2713;42.680;23.310;2022-12-18T12:07:34;96384.31;;;6.71;64.30
5380;BME280;2713;42.680;23.310;2022-12-18T12:10:15;96378.00;;;6.63;66.06
5380;BME280;2713;42.680;23.310;2022-12-18T12:12:59;96378.53;;;7.40;73.93
5380;BME280;2713;42.680;23.310;2022-12-18T12:15:37;96350.47;;;9.13;96.42
5380;BME280;2713;42.680;23.310;2022-12-18T12:18:18;96363.28;;;9.80;79.17
5380;BME280;2713;42.680;23.310;2022-12-18T12:20:53;96365.47;;;10.12;71.48
5380;BME280;2713;42.680;23.310;2022-12-18T12:23:30;96379.41;;;9.28;60.32
5380;BME280;2713;42.680;23.310;2022-12-18T12:26:03;96379.66;;;8.57;59.73
5380;BME280;2713;42.680;23.310;2022-12-18T12:28:48;96378.75;;;7.88;61.71
5380;BME280;2713;42.680;23.310;2022-12-18T12:31:24;96384.66;;;7.60;62.27
5380;BME280;2713;42.680;23.310;2022-12-18T12:34:01;96385.25;;;7.43;63.50
5380;BME280;2713;42.680;23.310;2022-12-18T12:36:36;96388.31;;;7.37;63.15
5380;BME280;2713;42.680;23.310;2022-12-18T12:39:10;96387.69;;;7.24;64.24
5380;BME280;2713;42.680;23.310;2022-12-18T12:41:40;96393.56;;;7.05;64.76
5380;BME280;2713;42.680;23.310;2022-12-18T12:44:28;96391.41;;;7.10;65.18
5380;BME280;2713;42.680;23.310;2022-12-18T12:47:01;96383.69;;;6.99;64.87
5380;BME280;2713;42.680;23.310;2022-12-18T12:49:31;96382.75;;;7.00;65.26
5380;BME280;2713;42.680;23.310;2022-12-18T12:52:03;96389.00;;;6.97;65.58
5380;BME280;2713;42.680;23.310;2022-12-18T12:54:32;96391.69;;;6.96;64.90
5380;BME280;2713;42.680;23.310;2022-12-18T12:57:03;96383.13;;;6.95;65.12
5380;BME280;2713;42.680;23.310;2022-12-18T12:59:39;96374.47;;;6.85;65.39
5380;BME280;2713;42.680;23.310;2022-12-18T13:02:19;96396.63;;;6.99;65.09
5380;BME280;2713;42.680;23.310;2022-12-18T13:04:49;96387.06;;;6.79;65.84
5380;BME280;2713;42.680;23.310;2022-12-18T13:07:24;96396.22;;;6.83;65.90
5380;BME280;2713;42.680;23.310;2022-12-18T13:10:14;96402.56;;;6.79;65.26
5380;BME280;2713;42.680;23.310;2022-12-18T13:12:54;96411.19;;;6.68;64.81
5380;BME280;2713;42.680;23.310;2022-12-18T13:15:27;96412.91;;;6.79;65.08
5380;BME280;2713;42.680;23.310;2022-12-18T13:18:14;96420.19;;;6.85;64.88
5380;BME280;2713;42.680;23.310;2022-12-18T13:20:43;96415.22;;;6.93;65.07
5380;BME280;2713;42.680;23.310;2022-12-18T13:23:26;96409.91;;;6.62;65.18
5380;BME280;2713;42.680;23.310;2022-12-18T13:25:55;96421.09;;;6.52;65.95
5380;BME280;2713;42.680;23.310;2022-12-18T13:28:23;96428.34;;;6.58;65.11
5380;BME280;2713;42.680;23.310;2022-12-18T13:30:56;96423.53;;;6.64;65.47
5380;BME280;2713;42.680;23.310;2022-12-18T13:33:48;96426.84;;;6.55;66.08
5380;BME280;2713;42.680;23.310;2022-12-18T13:36:26;96424.25;;;6.67;65.28
5380;BME280;2713;42.680;23.310;2022-12-18T13:39:23;96430.41;;;6.86;64.76
5380;BME280;2713;42.680;23.310;2022-12-18T13:41:52;96417.13;;;6.91;65.73
5380;BME280;2713;42.680;23.310;2022-12-18T13:44:31;96431.81;;;6.79;65.15
5380;BME280;2713;42.680;23.310;2022-12-18T13:46:58;96432.69;;;6.69;66.24
5380;BME280;2713;42.680;23.310;2022-12-18T13:49:35;96439.25;;;6.73;65.45